Time;durP1;ratioP1;P1;durP2;ratioP2;P2;SDS_P1;SDS_P2;PMS_P1;PMS_P2;Temp;Humidity;BMP_temperature;BMP_pressure;BME280_temperature;BME280_humidity;BME280_pressure;Samples;Min_cycle;Max_cycle;Signal;HPM_P1;HPM_P2
2022/11/14 00:03:17;;;;;;;40.50;23.47;;;;;;;6.97;91.55;100929.39;1738253;82;21252;-76
2022/11/14 00:06:41;;;;;;;34.83;22.90;;;;;;;6.90;91.41;100929.92;1738123;82;21963;-76
2022/11/14 00:10:05;;;;;;;39.23;24.23;;;;;;;6.86;91.18;100935.27;1737592;82;21237;-76
2022/11/14 00:13:29;;;;;;;33.88;21.73;;;;;;;6.86;90.93;100944.79;1738865;82;21747;-75
2022/11/14 00:16:53;;;;;;;37.35;23.60;;;;;;;6.78;90.91;100936.48;1738154;82;21236;-76
2022/11/14 00:20:19;;;;;;;35.85;22.50;;;;;;;6.74;91.08;100930.95;1738384;82;21204;-76
2022/11/14 00:23:43;;;;;;;35.75;23.62;;;;;;;6.76;91.14;100935.73;1739599;82;21189;-77
2022/11/14 00:27:07;;;;;;;36.55;22.32;;;;;;;6.66;91.29;100938.41;1739530;82;21193;-75
2022/11/14 00:30:31;;;;;;;39.03;22.05;;;;;;;6.70;91.10;100933.57;1746043;81;21236;-77
2022/11/14 00:33:56;;;;;;;40.58;22.65;;;;;;;6.53;91.42;100924.67;1809613;79;21198;-77
2022/11/14 00:37:20;;;;;;;34.10;20.85;;;;;;;6.54;91.60;100921.84;1771272;81;21770;-77
2022/11/14 00:40:43;;;;;;;40.20;23.15;;;;;;;6.56;91.46;100917.63;1742061;82;21245;-77
2022/11/14 00:44:06;;;;;;;40.50;22.77;;;;;;;6.60;91.29;100913.64;1741952;82;21787;-77
2022/11/14 00:47:30;;;;;;;40.52;21.73;;;;;;;6.57;91.18;100905.75;1757054;80;21776;-77
2022/11/14 00:50:54;;;;;;;40.70;21.02;;;;;;;6.55;91.23;100910.47;1772540;81;21228;-77
2022/11/14 00:54:11;;;;;;;32.33;21.02;;;;;;;6.47;91.33;100906.20;1742055;82;21246;-77
2022/11/14 00:57:21;;;;;;;33.25;21.07;;;;;;;6.48;91.14;100910.14;1742058;82;21200;-76
2022/11/14 01:00:25;;;;;;;33.67;21.62;;;;;;;6.39;91.46;100918.59;1756075;81;21792;-76
2022/11/14 01:03:34;;;;;;;36.75;20.62;;;;;;;6.37;91.26;100915.17;1771772;80;21218;-76
2022/11/14 01:06:58;;;;;;;40.50;21.70;;;;;;;6.42;91.43;100916.13;1741978;82;21840;-76
2022/11/14 01:10:23;;;;;;;36.90;19.65;;;;;;;6.39;91.27;100926.75;1741005;82;21241;-77
2022/11/14 01:13:46;;;;;;;33.80;20.23;;;;;;;6.47;91.37;100918.44;1757374;81;21186;-75
2022/11/14 01:17:10;;;;;;;39.33;20.35;;;;;;;6.54;91.28;100931.36;1772512;81;21193;-75
2022/11/14 01:20:34;;;;;;;30.02;19.87;;;;;;;6.66;90.67;100937.55;1740797;82;21737;-77
2022/11/14 01:23:59;;;;;;;37.28;20.27;;;;;;;6.70;90.10;100938.15;1741918;82;21303;-76
2022/11/14 01:27:16;;;;;;;32.98;20.27;;;;;;;6.49;89.90;100931.38;1757390;81;21189;-76
2022/11/14 01:30:28;;;;;;;34.45;19.40;;;;;;;6.38;90.59;100941.84;1771393;81;21201;-77
2022/11/14 01:33:51;;;;;;;38.98;20.10;;;;;;;6.52;89.96;100937.41;1739591;82;21201;-76
2022/11/14 01:37:14;;;;;;;33.73;19.15;;;;;;;6.32;90.48;100942.38;1742171;82;21343;-76
2022/11/14 01:40:39;;;;;;;31.27;19.67;;;;;;;6.35;90.36;100947.06;1756103;81;21240;-77
2022/11/14 01:44:02;;;;;;;36.28;19.92;;;;;;;6.31;91.20;100949.67;1771039;81;21236;-75
2022/11/14 01:47:32;;;;;;;36.53;20.45;;;;;;;6.19;91.98;100956.16;1741878;82;21206;-75
2022/11/14 01:50:59;;;;;;;35.05;20.52;;;;;;;6.24;92.04;100956.62;1741101;82;21232;-76
2022/11/14 01:54:21;;;;;;;40.10;21.27;;;;;;;6.29;91.93;100963.88;1757369;81;21181;-75
2022/11/14 01:57:38;;;;;;;42.27;20.97;;;;;;;6.34;91.97;100964.83;1772586;81;21173;-75
2022/11/14 02:00:43;;;;;;;48.10;20.00;;;;;;;6.40;91.70;100971.12;1740589;82;21761;-76
2022/11/14 02:03:55;;;;;;;34.33;20.10;;;;;;;6.48;91.37;100971.28;1741290;82;21295;-76
2022/11/14 02:07:03;;;;;;;34.00;20.25;;;;;;;6.45;91.33;100979.73;1757184;81;21241;-76
2022/11/14 02:10:24;;;;;;;37.63;19.73;;;;;;;6.46;91.31;100980.59;1771833;81;21225;-76
2022/11/14 02:13:28;;;;;;;35.33;20.82;;;;;;;6.47;91.45;100976.36;1742663;82;21190;-76
2022/11/14 02:16:48;;;;;;;36.83;20.62;;;;;;;6.53;91.17;100976.32;1740550;82;21801;-75
2022/11/14 02:20:23;;;;;;;35.13;19.40;;;;;;;6.57;90.40;100979.14;1756962;81;21248;-75
2022/11/14 02:23:47;;;;;;;33.05;18.27;;;;;;;6.34;90.39;100971.12;1772406;81;21189;-76
2022/11/14 02:27:12;;;;;;;34.18;19.20;;;;;;;6.31;89.98;100977.34;1740437;82;21757;-75
2022/11/14 02:30:35;;;;;;;36.35;19.25;;;;;;;6.11;89.92;100985.83;1741846;82;21431;-76
2022/11/14 02:33:58;;;;;;;35.83;19.70;;;;;;;5.97;89.88;100982.06;1756769;80;21268;-75
2022/11/14 02:37:22;;;;;;;40.28;19.48;;;;;;;5.92;89.75;100989.75;1772422;81;21189;-75
2022/11/14 02:40:47;;;;;;;33.67;19.12;;;;;;;5.90;89.59;100989.36;1741353;82;21214;-77
2022/11/14 02:44:11;;;;;;;29.67;18.10;;;;;;;5.89;89.46;100997.14;1741996;82;21236;-76
2022/11/14 02:47:34;;;;;;;36.58;19.15;;;;;;;5.84;89.09;100997.17;1757342;81;21186;-76
2022/11/14 02:50:59;;;;;;;33.88;18.50;;;;;;;5.75;89.04;101000.16;1771742;81;21831;-76
2022/11/14 02:54:23;;;;;;;29.02;17.50;;;;;;;5.57;89.41;101002.55;1742022;82;21761;-76
2022/11/14 02:57:47;;;;;;;27.65;17.80;;;;;;;5.41;89.85;100998.50;1743091;82;21169;-77
2022/11/14 03:01:10;;;;;;;28.50;17.98;;;;;;;5.15;91.17;101001.50;1756769;81;21185;-76
2022/11/14 03:04:35;;;;;;;35.03;19.30;;;;;;;5.16;91.32;101010.00;1772415;80;21272;-76
2022/11/14 03:08:00;;;;;;;34.27;18.87;;;;;;;5.14;91.36;101006.57;1742191;82;21187;-77
2022/11/14 03:11:25;;;;;;;31.57;18.30;;;;;;;5.13;91.21;101005.71;1740648;82;21870;-76
2022/11/14 03:14:42;;;;;;;30.45;17.37;;;;;;;4.89;92.01;100996.81;1756864;81;21225;-75
2022/11/14 03:17:53;;;;;;;40.00;19.75;;;;;;;4.94;92.26;100999.16;1770654;81;21268;-75
2022/11/14 03:21:22;;;;;;;43.48;19.60;;;;;;;4.97;91.71;100992.14;1740585;82;21281;-75
2022/11/14 03:24:46;;;;;;;40.17;19.67;;;;;;;4.87;91.81;100998.80;1742081;82;21759;-76
2022/11/14 03:28:10;;;;;;;44.45;20.27;;;;;;;4.82;91.81;101003.73;1757225;81;21320;-76
2022/11/14 03:31:34;;;;;;;45.83;21.70;;;;;;;4.93;91.43;101001.51;1771484;81;21216;-75
2022/11/14 03:34:58;;;;;;;38.92;19.98;;;;;;;4.81;91.48;100989.81;1735590;82;21210;-75
2022/11/14 03:38:25;;;;;;;37.13;20.57;;;;;;;4.78;91.60;100990.05;1801071;79;22600;-75
2022/11/14 03:41:47;;;;;;;42.35;21.65;;;;;;;4.72;91.75;101002.25;1801646;79;21189;-79
2022/11/14 03:45:12;;;;;;;46.35;23.27;;;;;;;4.61;92.36;101003.57;1764496;81;21245;-78
2022/11/14 03:48:29;;;;;;;39.98;21.73;;;;;;;4.65;92.15;101003.70;1802703;79;21232;-78
2022/11/14 03:51:39;;;;;;;;;;;;;;;4.74;91.95;101005.69;1765696;81;22521;-77
2022/11/14 03:55:02;;;;;;;49.35;25.10;;;;;;;4.76;91.64;101013.22;1763250;80;20207;-77
2022/11/14 03:58:25;;;;;;;53.98;25.95;;;;;;;4.76;91.66;101019.14;1802616;79;21786;-78
2022/11/14 04:01:49;;;;;;;46.23;26.30;;;;;;;4.71;91.71;101019.50;1763692;81;21728;-78
2022/11/14 04:05:12;;;;;;;46.28;24.10;;;;;;;4.63;92.32;101019.23;1802188;79;21240;-76
2022/11/14 04:08:36;;;;;;;48.95;25.48;;;;;;;4.63;92.47;101027.36;1764442;81;21198;-75
2022/11/14 04:11:59;;;;;;;46.30;24.43;;;;;;;4.76;92.33;101040.82;1801097;79;21181;-75
2022/11/14 04:15:25;;;;;;;50.43;24.70;;;;;;;4.77;92.32;101040.69;1763007;81;21253;-76
2022/11/14 04:18:48;;;;;;;44.25;22.32;;;;;;;4.81;92.28;101033.19;1802642;79;21177;-74
2022/11/14 04:22:12;;;;;;;40.30;22.58;;;;;;;4.84;92.50;101034.27;1763490;81;21177;-77
2022/11/14 04:25:36;;;;;;;43.45;22.50;;;;;;;5.00;92.12;101038.00;1801178;79;21256;-76
2022/11/14 04:28:53;;;;;;;37.58;21.30;;;;;;;4.89;92.38;101038.84;1764453;81;21811;-75
2022/11/14 04:32:02;;;;;;;;;;;;;;;5.01;92.36;101045.14;1804410;79;21256;-75
2022/11/14 04:35:26;;;;;;;37.42;21.02;;;;;;;4.96;91.89;101044.16;1801297;79;20212;-75
2022/11/14 04:38:50;;;;;;;36.98;19.77;;;;;;;4.90;91.79;101045.16;1764430;81;21185;-75
2022/11/14 04:42:14;;;;;;;42.70;20.02;;;;;;;4.91;91.76;101045.52;1801335;79;21196;-75
2022/11/14 04:45:38;;;;;;;35.75;18.17;;;;;;;4.84;91.87;101055.47;1764582;81;21304;-76
2022/11/14 04:49:01;;;;;;;34.92;17.80;;;;;;;4.78;92.21;101051.89;1802576;79;21767;-77
2022/11/14 04:52:25;;;;;;;33.00;16.48;;;;;;;4.80;92.42;101055.86;1763542;81;21221;-75
2022/11/14 04:55:51;;;;;;;28.35;16.60;;;;;;;4.91;91.93;101060.42;1801040;79;21248;-77
2022/11/14 04:59:14;;;;;;;29.77;16.37;;;;;;;4.99;91.53;101068.82;1764354;81;21747;-76
2022/11/14 05:02:38;;;;;;;36.17;16.95;;;;;;;5.12;91.00;101062.77;1801526;79;21723;-76
2022/11/14 05:06:04;;;;;;;32.93;16.52;;;;;;;5.19;90.58;101072.14;1763652;81;21233;-76
2022/11/14 05:09:28;;;;;;;31.30;17.92;;;;;;;5.21;90.17;101073.38;1788454;79;21177;-76
2022/11/14 05:12:51;;;;;;;38.08;17.82;;;;;;;5.13;90.24;101076.72;1763096;80;22423;-77
2022/11/14 05:16:14;;;;;;;29.42;16.48;;;;;;;5.06;90.38;101074.97;1802609;79;21185;-76
2022/11/14 05:19:38;;;;;;;30.85;15.83;;;;;;;5.03;90.55;101079.77;1764486;81;21224;-75
2022/11/14 05:23:04;;;;;;;34.88;14.87;;;;;;;4.97;90.85;101085.69;1801713;79;21173;-78
2022/11/14 05:26:28;;;;;;;27.52;14.68;;;;;;;5.00;90.82;101085.45;1763238;80;21212;-76
2022/11/14 05:29:54;;;;;;;28.50;13.85;;;;;;;5.06;91.13;101092.59;1802461;79;21185;-76
2022/11/14 05:33:17;;;;;;;24.90;12.98;;;;;;;5.22;90.96;101096.78;1763214;81;21751;-75
2022/11/14 05:36:41;;;;;;;24.95;14.20;;;;;;;5.34;90.84;101098.03;1799128;79;21284;-75
2022/11/14 05:40:05;;;;;;;21.97;13.80;;;;;;;5.38;90.93;101109.02;1776722;81;21185;-76
2022/11/14 05:43:29;;;;;;;23.52;12.40;;;;;;;5.44;90.84;101114.44;1775234;81;21173;-76
2022/11/14 05:46:53;;;;;;;24.92;13.32;;;;;;;5.29;91.05;101111.60;1776349;81;21189;-78
2022/11/14 05:50:17;;;;;;;30.95;14.30;;;;;;;5.47;90.83;101118.27;1764470;80;21163;-76
2022/11/14 05:53:34;;;;;;;25.52;13.62;;;;;;;5.28;91.79;101116.16;1762153;81;21262;-76
2022/11/14 05:56:59;;;;;;;31.30;13.35;;;;;;;5.36;91.95;101115.07;1762237;81;21305;-77
2022/11/14 06:00:24;;;;;;;21.60;12.75;;;;;;;5.47;91.64;101119.62;1762279;81;21175;-76
2022/11/14 06:03:51;;;;;;;28.07;12.80;;;;;;;5.52;91.58;101118.75;1759670;81;21247;-76
2022/11/14 06:07:15;;;;;;;21.55;12.78;;;;;;;5.58;91.54;101123.67;1746767;82;21195;-77
2022/11/14 06:10:38;;;;;;;25.37;13.25;;;;;;;5.69;91.58;101127.36;1749069;81;21205;-76
2022/11/14 06:14:05;;;;;;;28.45;13.10;;;;;;;5.77;91.75;101124.89;1743316;80;21200;-77
2022/11/14 06:17:28;;;;;;;23.32;12.78;;;;;;;5.73;92.01;101131.56;1751633;81;21225;-77
2022/11/14 06:20:52;;;;;;;22.75;11.78;;;;;;;5.93;91.50;101135.37;1761095;80;21173;-75
2022/11/14 06:24:15;;;;;;;18.27;10.98;;;;;;;5.97;91.71;101128.70;1783982;79;21843;-77
2022/11/14 06:27:41;;;;;;;21.68;10.95;;;;;;;6.04;91.82;101123.16;1750347;80;21206;-78
2022/11/14 06:30:59;;;;;;;17.02;9.83;;;;;;;6.12;91.68;101124.75;1752156;80;21796;-77
2022/11/14 06:34:22;;;;;;;23.32;11.10;;;;;;;6.19;91.45;101130.02;1761250;80;21795;-77
2022/11/14 06:37:46;;;;;;;24.12;10.65;;;;;;;6.11;91.55;101121.64;1766214;79;21771;-76
2022/11/14 06:41:19;;;;;;;17.90;9.35;;;;;;;6.16;91.75;101118.03;1793182;79;21161;-77
2022/11/14 06:44:44;;;;;;;17.02;10.08;;;;;;;6.06;92.31;101126.09;1788140;79;21747;-77
2022/11/14 06:48:07;;;;;;;13.10;8.65;;;;;;;6.32;92.05;101124.42;1801424;79;21298;-79
2022/11/14 06:51:31;;;;;;;17.05;8.30;;;;;;;6.45;91.48;101125.63;1789716;79;22447;-76
2022/11/14 06:54:55;;;;;;;19.65;9.80;;;;;;;6.58;90.99;101137.15;1760193;79;67756;-77
2022/11/14 06:58:19;;;;;;;17.42;8.35;;;;;;;6.59;91.08;101137.05;1713290;83;21217;-77
2022/11/14 07:01:43;;;;;;;17.15;8.85;;;;;;;6.72;90.68;101144.13;1714161;83;21213;-77
2022/11/14 07:05:07;;;;;;;13.45;8.28;;;;;;;6.70;90.87;101152.94;1687853;84;21254;-76
2022/11/14 07:08:30;;;;;;;13.83;7.90;;;;;;;6.93;90.20;101158.63;1684862;83;21217;-77
2022/11/14 07:11:47;;;;;;;14.28;7.22;;;;;;;6.94;89.88;101159.48;1710564;82;21902;-78
2022/11/14 07:15:12;;;;;;;13.60;7.00;;;;;;;7.13;89.65;101163.69;1685288;83;21770;-77
2022/11/14 07:18:37;;;;;;;12.35;7.85;;;;;;;7.25;88.74;101149.03;1709086;83;21233;-77
2022/11/14 07:22:02;;;;;;;21.68;7.95;;;;;;;7.29;88.13;101157.29;1710965;83;21201;-76
2022/11/14 07:25:26;;;;;;;11.55;7.10;;;;;;;7.41;87.46;101153.97;1721234;83;21300;-76
2022/11/14 07:28:50;;;;;;;17.92;7.67;;;;;;;7.36;87.57;101152.16;1717999;83;21160;-76
2022/11/14 07:32:17;;;;;;;15.23;7.25;;;;;;;7.46;87.10;101154.42;1712515;82;21230;-76
2022/11/14 07:35:41;;;;;;;16.85;8.73;;;;;;;7.48;86.97;101152.45;1712792;82;21220;-77
2022/11/14 07:39:06;;;;;;;18.07;8.78;;;;;;;7.56;86.41;101154.47;1681655;83;21833;-77
2022/11/14 07:42:30;;;;;;;20.15;9.18;;;;;;;7.50;86.77;101151.80;1685175;85;21243;-77
2022/11/14 07:45:54;;;;;;;13.32;7.55;;;;;;;7.56;86.69;101148.52;1666308;86;21294;-77
2022/11/14 07:49:05;;;;;;;17.12;8.20;;;;;;;7.72;86.33;101138.50;1662455;85;21222;-77
2022/11/14 07:52:30;;;;;;;20.12;8.43;;;;;;;7.90;85.29;101136.84;1671619;84;21770;-77
2022/11/14 07:55:54;;;;;;;19.23;8.15;;;;;;;7.91;84.56;101140.42;1678118;83;28748;-77
2022/11/14 07:59:17;;;;;;;15.13;7.72;;;;;;;8.16;83.42;101148.08;1707942;83;21758;-79
2022/11/14 08:02:42;;;;;;;14.60;7.35;;;;;;;8.28;82.79;101147.47;1712666;82;21770;-76
2022/11/14 08:06:16;;;;;;;13.72;6.53;;;;;;;8.45;82.07;101146.78;1695156;83;21586;-75
2022/11/14 08:09:40;;;;;;;11.18;5.12;;;;;;;8.57;80.58;101141.21;1686324;85;21232;-76
2022/11/14 08:13:08;;;;;;;13.43;5.28;;;;;;;8.69;79.68;101149.59;1696446;84;21855;-77
2022/11/14 08:16:28;;;;;;;13.48;5.25;;;;;;;8.81;78.08;101155.27;1712449;82;21229;-76
2022/11/14 08:19:52;;;;;;;8.93;4.55;;;;;;;8.82;76.93;101149.30;1685510;83;21295;-77
2022/11/14 08:23:16;;;;;;;11.30;4.92;;;;;;;8.88;76.67;101153.67;1696106;84;21234;-77
2022/11/14 08:26:42;;;;;;;6.50;3.60;;;;;;;8.90;76.60;101154.41;1679982;85;21223;-77
2022/11/14 08:30:06;;;;;;;9.35;4.10;;;;;;;9.05;75.14;101156.69;1691153;84;21225;-77
2022/11/14 08:33:30;;;;;;;8.48;3.17;;;;;;;9.14;73.97;101158.54;1702972;83;21188;-77
2022/11/14 08:36:58;;;;;;;5.78;3.22;;;;;;;9.20;73.54;101150.61;1699804;83;21173;-77
2022/11/14 08:40:35;;;;;;;7.12;4.03;;;;;;;9.35;72.25;101157.83;1705728;83;21819;-77
2022/11/14 08:43:58;;;;;;;7.08;3.55;;;;;;;9.27;71.38;101144.55;1711871;83;21332;-77
2022/11/14 08:47:17;;;;;;;5.50;3.17;;;;;;;9.30;70.12;101145.13;1684580;84;21248;-77
2022/11/14 08:50:28;;;;;;;5.20;3.08;;;;;;;9.32;70.04;101138.17;1698782;83;21221;-76
2022/11/14 08:53:45;;;;;;;7.35;3.67;;;;;;;9.06;70.98;101137.42;1701827;83;21236;-75
2022/11/14 08:56:56;;;;;;;12.35;2.85;;;;;;;9.18;71.33;101134.04;1704076;84;21280;-76
2022/11/14 09:00:21;;;;;;;5.65;2.50;;;;;;;9.20;70.58;101131.50;1703214;83;22478;-76
2022/11/14 09:03:45;;;;;;;5.67;3.05;;;;;;;9.27;70.74;101124.08;1695694;84;21850;-78
2022/11/14 09:07:11;;;;;;;6.65;2.98;;;;;;;9.23;70.64;101116.71;1699086;84;21187;-77
2022/11/14 09:10:28;;;;;;;8.38;2.50;;;;;;;9.45;69.80;101120.42;1699839;84;21655;-78
2022/11/14 09:13:56;;;;;;;4.65;2.12;;;;;;;9.46;69.48;101117.22;1689346;82;21336;-76
2022/11/14 09:17:20;;;;;;;6.90;3.20;;;;;;;9.59;69.26;101125.05;1687641;84;21767;-76
2022/11/14 09:20:46;;;;;;;5.90;2.60;;;;;;;9.85;68.42;101116.52;1679910;85;21222;-77
2022/11/14 09:24:09;;;;;;;4.95;2.72;;;;;;;9.83;68.38;101108.11;1670705;84;21208;-77
2022/11/14 09:27:34;;;;;;;4.62;2.60;;;;;;;9.93;68.17;101108.94;1681391;85;22420;-76
2022/11/14 09:30:58;;;;;;;9.50;2.77;;;;;;;9.95;67.44;101106.90;1664964;85;21208;-77
2022/11/14 09:34:20;;;;;;;5.17;2.33;;;;;;;9.95;66.99;101109.13;1697454;83;21409;-78
2022/11/14 09:37:39;;;;;;;6.03;2.15;;;;;;;10.00;66.44;101104.56;1675779;84;21842;-77
2022/11/14 09:41:34;;;;;;;6.37;2.95;;;;;;;9.93;66.61;101109.80;1699276;83;21197;-77
2022/11/14 09:45:03;;;;;;;6.92;2.60;;;;;;;10.13;65.75;101108.30;1708722;82;21197;-79
2022/11/14 09:48:32;;;;;;;4.62;2.33;;;;;;;10.10;64.46;101109.97;1691653;84;21188;-77
2022/11/14 09:52:00;;;;;;;7.62;2.70;;;;;;;10.07;64.73;101099.33;1680900;83;21247;-77
2022/11/14 09:55:35;;;;;;;4.67;2.20;;;;;;;10.04;64.69;101092.31;1677790;83;21275;-75
2022/11/14 09:58:59;;;;;;;5.72;2.52;;;;;;;10.03;64.82;101099.31;1678246;83;40608;-77
2022/11/14 10:02:43;;;;;;;11.65;2.33;;;;;;;10.15;64.12;101091.23;1681877;85;21606;-76
2022/11/14 10:06:29;;;;;;;3.35;1.67;;;;;;;10.10;64.28;101081.27;1682804;85;21287;-76
2022/11/14 10:10:05;;;;;;;3.87;1.90;;;;;;;10.21;64.03;101081.06;1703156;83;21333;-79
2022/11/14 10:13:38;;;;;;;3.00;1.80;;;;;;;10.50;63.39;101082.22;1652345;83;21272;-75
2022/11/14 10:17:25;;;;;;;3.50;1.22;;;;;;;10.59;62.67;101084.53;1696495;83;21219;-79
2022/11/14 10:21:01;;;;;;;7.28;1.85;;;;;;;10.59;60.79;101080.42;1689267;83;21215;-77
2022/11/14 10:24:58;;;;;;;5.45;1.95;;;;;;;10.83;59.32;101081.13;1694924;83;21205;-76
2022/11/14 10:28:43;;;;;;;4.53;2.10;;;;;;;10.79;58.87;101069.64;1695254;83;21323;-77
2022/11/14 10:32:28;;;;;;;6.50;2.02;;;;;;;10.89;58.93;101080.48;1697502;84;21319;-78
2022/11/14 10:36:07;;;;;;;4.35;2.08;;;;;;;10.96;58.22;101081.06;1703134;83;21915;-78
2022/11/14 10:39:35;;;;;;;3.80;1.87;;;;;;;10.96;57.96;101072.85;1703278;83;21739;-77
2022/11/14 10:43:32;;;;;;;4.40;2.30;;;;;;;10.80;58.16;101072.72;1684948;83;21230;-77
2022/11/14 10:46:59;;;;;;;4.40;2.10;;;;;;;10.83;57.48;101062.83;1635085;83;21254;-78
2022/11/14 10:50:41;;;;;;;6.87;2.92;;;;;;;10.92;56.97;101071.45;1712015;82;21799;-77
2022/11/14 10:54:33;;;;;;;6.67;3.00;;;;;;;10.94;56.63;101063.92;1683795;83;22405;-77
2022/11/14 10:57:59;;;;;;;8.03;2.40;;;;;;;10.81;57.69;101062.11;1707526;84;21177;-77
2022/11/14 11:01:45;;;;;;;7.62;3.25;;;;;;;10.83;57.60;101057.36;1708823;83;21343;-78
2022/11/14 11:04:59;;;;;;;9.80;3.30;;;;;;;10.87;57.19;101051.03;1822823;76;31977;-77
2022/11/14 11:12:10;;;;;;;6.37;2.45;;;;;;;11.07;56.28;101047.59;1767100;79;21789;-77
2022/11/14 11:15:38;;;;;;;8.68;2.30;;;;;;;11.21;55.57;101041.52;1781958;79;21232;-76
2022/11/14 11:19:11;;;;;;;8.45;2.75;;;;;;;11.24;54.60;101048.02;1759061;79;21594;-76
2022/11/14 11:22:45;;;;;;;5.70;2.80;;;;;;;11.28;55.08;101041.70;1721147;82;21212;-75
2022/11/14 11:26:25;;;;;;;4.90;2.30;;;;;;;11.21;55.05;101042.37;1708687;81;21326;-76
2022/11/14 11:29:53;;;;;;;5.42;2.10;;;;;;;11.09;54.69;101038.69;1723775;80;21265;-77
2022/11/14 11:33:29;;;;;;;5.50;2.52;;;;;;;11.00;54.49;101046.84;1720343;82;21217;-77
2022/11/14 11:36:51;;;;;;;6.30;3.08;;;;;;;11.12;54.74;101039.23;1738660;81;21276;-76
2022/11/14 11:40:19;;;;;;;6.85;3.67;;;;;;;11.06;54.29;101049.98;1735331;82;21201;-76
2022/11/14 11:43:54;;;;;;;12.65;4.08;;;;;;;10.74;55.13;101034.54;1753422;81;22233;-77
2022/11/14 11:47:22;;;;;;;7.62;4.17;;;;;;;11.19;54.56;101037.55;1722166;81;21173;-76
2022/11/14 11:50:49;;;;;;;13.65;5.60;;;;;;;11.10;54.73;101036.30;1729822;81;21305;-78
2022/11/14 11:54:25;;;;;;;12.25;5.83;;;;;;;11.10;53.96;101028.94;1731017;82;21227;-77
2022/11/14 11:58:11;;;;;;;15.20;5.85;;;;;;;10.86;54.57;101033.75;1744143;81;21181;-77
2022/11/14 12:01:30;;;;;;;13.75;5.95;;;;;;;9.30;59.69;101029.09;1634602;86;21375;-77
2022/11/14 12:04:43;;;;;;;20.10;8.68;;;;;;;9.25;61.34;101032.78;1643202;86;22893;-77
2022/11/14 12:08:08;;;;;;;19.45;8.73;;;;;;;9.41;60.86;101040.31;1633563;86;21244;-77
2022/11/14 12:11:25;;;;;;;33.02;15.72;;;;;;;9.41;61.61;101028.92;1630470;86;21501;-76
2022/11/14 12:15:10;;;;;;;31.27;16.12;;;;;;;10.37;58.88;101030.65;1629953;86;21206;-76
2022/11/14 12:19:15;;;;;;;34.33;16.02;;;;;;;10.53;57.70;101026.33;1639743;86;21211;-78
2022/11/14 12:22:50;;;;;;;33.42;14.55;;;;;;;10.36;58.17;101033.04;1632960;86;21776;-75
2022/11/14 12:26:48;;;;;;;37.25;13.98;;;;;;;10.70;56.60;101026.81;1630935;86;22476;-77
2022/11/14 12:30:15;;;;;;;26.27;11.70;;;;;;;10.81;56.36;101028.41;1629453;86;21213;-77
2022/11/14 12:33:41;;;;;;;26.20;10.15;;;;;;;10.63;57.33;101029.34;1604565;88;21317;-76
2022/11/14 12:36:58;;;;;;;16.20;8.63;;;;;;;10.69;56.76;101027.33;1613672;87;21268;-78
2022/11/14 12:40:13;;;;;;;13.65;5.67;;;;;;;10.66;56.59;101029.52;1623973;86;21216;-78
2022/11/14 12:43:48;;;;;;;9.38;5.20;;;;;;;10.50;57.32;101028.88;1630270;86;21373;-77
2022/11/14 12:47:18;;;;;;;11.05;4.90;;;;;;;10.28;57.68;101037.06;1638039;86;21225;-77
2022/11/14 12:50:49;;;;;;;10.13;4.47;;;;;;;10.25;57.67;101038.73;1611112;87;21157;-78
2022/11/14 12:54:16;;;;;;;12.35;4.37;;;;;;;10.24;57.44;101037.88;1604834;88;21292;-76
2022/11/14 12:57:51;;;;;;;9.08;4.53;;;;;;;10.21;57.70;101041.42;1610186;88;21209;-77
2022/11/14 13:01:22;;;;;;;12.25;4.55;;;;;;;10.17;57.76;101037.27;1617472;86;21283;-77
2022/11/14 13:05:19;;;;;;;11.70;4.10;;;;;;;10.19;57.78;101043.43;1565613;88;22195;-77
2022/11/14 13:09:29;;;;;;;14.70;4.67;;;;;;;10.35;57.68;101041.38;1582746;88;22422;-76
2022/11/14 13:24:26;;;;;;;14.35;4.30;;;;;;;10.13;58.14;101040.81;1629451;87;21844;-77
2022/11/14 13:27:48;;;;;;;12.35;4.37;;;;;;;10.11;58.78;101040.09;1620377;87;21244;-79
2022/11/14 13:31:46;;;;;;;12.55;5.20;;;;;;;10.06;59.12;101042.44;1602744;88;21770;-76
2022/11/14 13:35:12;;;;;;;14.45;4.50;;;;;;;9.99;59.29;101037.26;1598949;89;21264;-76
2022/11/14 13:39:22;;;;;;;14.35;4.97;;;;;;;9.96;59.70;101039.78;1618890;88;21371;-77
2022/11/14 13:43:17;;;;;;;11.78;4.35;;;;;;;9.88;59.71;101035.62;1622278;88;21293;-77
2022/11/14 13:47:19;;;;;;;12.70;5.47;;;;;;;9.76;60.04;101034.61;1596058;88;21301;-77
2022/11/14 13:50:43;;;;;;;12.98;4.97;;;;;;;9.84;60.30;101038.81;1570789;90;21324;-78
2022/11/14 13:54:06;;;;;;;12.10;5.30;;;;;;;9.85;60.59;101037.79;1597361;90;21256;-76
2022/11/14 13:57:44;;;;;;;12.10;5.58;;;;;;;9.79;60.67;101037.91;1599727;89;21286;-76
2022/11/14 14:01:36;;;;;;;17.62;6.25;;;;;;;9.67;60.78;101040.48;1596465;88;21254;-76
2022/11/14 14:05:39;;;;;;;17.87;7.65;;;;;;;9.49;61.38;101037.70;1573215;89;21272;-77
2022/11/14 14:09:20;;;;;;;19.07;7.67;;;;;;;9.26;62.04;101033.13;1597578;88;21250;-77
2022/11/14 14:12:59;;;;;;;16.00;6.17;;;;;;;8.88;63.23;101039.08;1598941;89;22401;-76
2022/11/14 14:16:48;;;;;;;15.27;5.10;;;;;;;8.65;64.25;101036.33;1597960;89;21250;-76
2022/11/14 14:20:41;;;;;;;19.30;4.80;;;;;;;8.63;64.64;101037.00;1598738;89;21559;-77
2022/11/14 14:24:16;;;;;;;16.90;4.67;;;;;;;8.38;65.39;101039.33;1600522;89;21816;-76
2022/11/14 14:27:49;;;;;;;13.75;5.50;;;;;;;8.22;66.04;101039.00;1598553;89;21262;-76
2022/11/14 14:31:24;;;;;;;11.73;5.70;;;;;;;8.11;66.59;101029.61;1600172;89;21832;-76
2022/11/14 14:34:47;;;;;;;24.10;7.67;;;;;;;8.00;67.23;101034.70;1599078;88;21246;-77
2022/11/14 14:38:11;;;;;;;17.25;6.70;;;;;;;7.96;67.37;101031.04;1599899;89;21246;-77
2022/11/14 14:41:38;;;;;;;21.05;8.13;;;;;;;7.94;67.43;101023.84;1575918;91;21244;-76
2022/11/14 14:44:55;;;;;;;15.15;6.83;;;;;;;7.89;67.68;101041.63;1576223;89;21767;-76
2022/11/14 14:48:21;;;;;;;15.90;7.85;;;;;;;7.78;68.24;101040.40;1575461;91;21292;-75
2022/11/14 14:51:46;;;;;;;20.02;9.33;;;;;;;7.78;68.22;101047.20;1575290;91;21248;-76
2022/11/14 14:55:13;;;;;;;23.67;10.45;;;;;;;7.62;68.77;101042.28;1575094;91;21268;-76
2022/11/14 14:58:38;;;;;;;34.25;13.98;;;;;;;7.52;69.13;101044.12;1575227;89;21252;-76
2022/11/14 15:02:02;;;;;;;28.45;9.93;;;;;;;7.49;69.10;101051.22;1573405;91;21324;-77
2022/11/14 15:05:31;;;;;;;16.32;6.05;;;;;;;7.37;69.44;101052.66;1572774;91;21386;-77
2022/11/14 15:08:55;;;;;;;12.45;5.35;;;;;;;7.40;69.26;101055.13;1572993;91;21244;-77
2022/11/14 15:12:07;;;;;;;21.73;6.42;;;;;;;7.39;69.34;101067.02;1571932;91;21301;-76
2022/11/14 15:15:31;;;;;;;17.70;7.72;;;;;;;7.41;69.21;101066.87;1572074;91;21843;-76
2022/11/14 15:18:54;;;;;;;22.65;8.28;;;;;;;7.35;69.34;101068.80;1573066;91;21261;-77
2022/11/14 15:22:28;;;;;;;24.77;9.93;;;;;;;7.21;69.68;101065.94;1573243;91;21569;-77
2022/11/14 15:25:52;;;;;;;24.18;10.72;;;;;;;7.12;70.11;101064.03;1572057;91;21903;-78
2022/11/14 15:29:26;;;;;;;24.20;11.33;;;;;;;7.06;70.28;101065.44;1573023;90;21312;-78
2022/11/14 15:32:59;;;;;;;21.10;10.05;;;;;;;6.99;70.52;101066.10;1573627;91;21252;-79
2022/11/14 15:36:23;;;;;;;30.05;11.45;;;;;;;6.94;70.71;101067.86;1572418;91;21260;-76
2022/11/14 15:39:48;;;;;;;26.50;12.28;;;;;;;6.87;70.99;101062.11;1573882;91;21277;-77
2022/11/14 15:43:51;;;;;;;18.20;8.70;;;;;;;6.79;71.33;101060.55;1573099;91;21245;-75
2022/11/14 15:47:35;;;;;;;22.00;8.43;;;;;;;6.95;71.02;101065.50;1572131;91;21288;-76
2022/11/14 15:50:58;;;;;;;17.57;6.95;;;;;;;6.91;71.09;101062.68;1572105;91;21308;-77
2022/11/14 15:54:41;;;;;;;17.87;6.83;;;;;;;7.05;70.59;101069.12;1573196;91;21244;-76
2022/11/14 15:58:06;;;;;;;17.45;6.83;;;;;;;7.02;70.61;101067.20;1573233;91;21240;-77
2022/11/14 16:01:30;;;;;;;18.12;7.87;;;;;;;6.82;71.41;101073.89;1571907;90;21815;-76
2022/11/14 16:04:55;;;;;;;14.03;7.00;;;;;;;6.76;71.57;101068.97;1573070;91;21252;-75
2022/11/14 16:08:19;;;;;;;21.93;7.62;;;;;;;6.64;72.00;101065.97;1572767;91;21802;-76
2022/11/14 16:11:44;;;;;;;16.23;6.67;;;;;;;6.73;71.69;101069.25;1573034;91;21260;-76
2022/11/14 16:15:08;;;;;;;16.85;6.55;;;;;;;6.70;71.71;101075.45;1571758;90;21272;-77